createdAt,value
2022-10-13T00:00:43.566Z,101500.78
2022-10-13T00:03:11.275Z,101504.56
2022-10-13T00:05:44.402Z,101504.38
2022-10-13T00:08:12.347Z,101501.19
2022-10-13T00:10:48.642Z,101508.66
2022-10-13T00:13:18.172Z,101494.47
2022-10-13T00:15:45.802Z,101498.53
2022-10-13T00:18:13.597Z,101501.31
2022-10-13T00:20:41.949Z,101510.69
2022-10-13T00:23:10.115Z,101504.47
2022-10-13T00:25:40.925Z,101501.75
2022-10-13T00:28:08.310Z,101507.34
2022-10-13T00:30:36.280Z,101509.34
2022-10-13T00:33:03.782Z,101510.34
2022-10-13T00:35:32.308Z,101506.69
2022-10-13T00:37:59.704Z,101505.72
2022-10-13T00:40:30.507Z,101505.00
2022-10-13T00:42:59.318Z,101500.47
2022-10-13T00:45:27.247Z,101505.56
2022-10-13T00:48:01.074Z,101508.88
2022-10-13T00:50:38.597Z,101511.84
2022-10-13T00:53:06.743Z,101504.06
2022-10-13T00:55:35.096Z,101506.34
2022-10-13T00:58:05.500Z,101504.41
2022-10-13T01:00:33.642Z,101501.97
2022-10-13T01:03:02.518Z,101507.94
2022-10-13T01:05:30.004Z,101512.94
2022-10-13T01:07:57.692Z,101512.00
2022-10-13T01:10:27.910Z,101510.56
2022-10-13T01:13:04.312Z,101506.34
2022-10-13T01:15:40.816Z,101507.50
2022-10-13T01:18:21.264Z,101514.19
2022-10-13T01:20:50.824Z,101510.81
2022-10-13T01:23:21.699Z,101512.44
2022-10-13T01:26:07.906Z,101520.44
2022-10-13T01:28:47.455Z,101516.34
2022-10-13T01:31:21.180Z,101517.81
2022-10-13T01:33:54.555Z,101521.25
2022-10-13T01:36:32.047Z,101522.31
2022-10-13T01:39:10.409Z,101523.75
2022-10-13T01:41:38.775Z,101515.78
2022-10-13T01:44:09.238Z,101519.69
2022-10-13T01:46:36.897Z,101520.06
2022-10-13T01:49:09.916Z,101522.09
2022-10-13T01:51:39.045Z,101526.09
2022-10-13T01:54:06.432Z,101524.50
2022-10-13T01:56:33.778Z,101522.72
2022-10-13T01:59:02.435Z,101523.03
2022-10-13T02:01:50.512Z,101524.50
2022-10-13T02:04:24.504Z,101529.50
2022-10-13T02:06:58.145Z,101530.69
2022-10-13T02:09:44.629Z,101529.91
2022-10-13T02:12:13.469Z,101530.41
2022-10-13T02:14:41.424Z,101528.88
2022-10-13T02:17:08.904Z,101530.59
2022-10-13T02:19:40.481Z,101526.69
2022-10-13T02:22:08.372Z,101529.97
2022-10-13T02:24:36.112Z,101531.63
2022-10-13T02:27:05.518Z,101533.41
2022-10-13T02:29:32.925Z,101532.34
2022-10-13T02:32:03.436Z,101531.00
2022-10-13T02:34:30.828Z,101531.44
2022-10-13T02:36:58.226Z,101534.72
2022-10-13T02:39:25.983Z,101534.25
2022-10-13T02:41:55.554Z,101538.34
2022-10-13T02:44:24.960Z,101541.34
2022-10-13T02:46:52.426Z,101530.97
2022-10-13T02:49:20.356Z,101536.72
2022-10-13T02:51:47.778Z,101540.50
2022-10-13T02:54:15.180Z,101533.84
2022-10-13T02:56:42.425Z,101537.34
2022-10-13T02:59:09.741Z,101530.41
2022-10-13T03:01:41.349Z,101536.50
2022-10-13T03:04:08.929Z,101538.53
2022-10-13T03:06:36.283Z,101533.84
2022-10-13T03:09:03.911Z,101534.81
2022-10-13T03:11:32.201Z,101535.28
2022-10-13T03:13:59.632Z,101539.53
2022-10-13T03:16:26.922Z,101539.72
2022-10-13T03:18:54.283Z,101536.75
2022-10-13T03:21:21.837Z,101541.50
2022-10-13T03:23:49.619Z,101541.41
2022-10-13T03:26:17.046Z,101533.06
2022-10-13T03:28:52.267Z,101542.94
2022-10-13T03:31:20.412Z,101544.59
2022-10-13T03:33:47.831Z,101537.97
2022-10-13T03:36:15.283Z,101542.84
2022-10-13T03:38:43.104Z,101539.47
2022-10-13T03:41:12.710Z,101540.56
2022-10-13T03:43:40.340Z,101551.00
2022-10-13T03:46:07.854Z,101551.91
2022-10-13T03:48:36.105Z,101552.91
2022-10-13T03:51:08.433Z,101548.53
2022-10-13T03:53:35.939Z,101549.34
2022-10-13T03:56:03.884Z,101554.22
2022-10-13T03:58:34.128Z,101552.09
2022-10-13T04:01:05.468Z,101550.81
2022-10-13T04:03:33.529Z,101550.84
2022-10-13T04:06:02.163Z,101556.78
2022-10-13T04:08:30.212Z,101552.97
2022-10-13T04:11:00.907Z,101564.66
2022-10-13T04:13:28.248Z,101562.31
2022-10-13T04:15:55.701Z,101565.09
2022-10-13T04:18:23.085Z,101561.91
2022-10-13T04:20:51.238Z,101568.50
2022-10-13T04:23:18.818Z,101575.22
2022-10-13T04:25:48.449Z,101570.19
2022-10-13T04:28:15.904Z,101575.25
2022-10-13T04:30:47.160Z,101583.53
2022-10-13T04:33:17.009Z,101580.41
2022-10-13T04:35:45.579Z,101571.41
2022-10-13T04:38:13.458Z,101577.22
2022-10-13T04:40:41.172Z,101580.22
2022-10-13T04:43:08.632Z,101581.69
2022-10-13T04:45:38.345Z,101582.72
2022-10-13T04:48:05.718Z,101577.34
2022-10-13T04:50:33.234Z,101581.16
2022-10-13T04:53:00.940Z,101589.47
2022-10-13T16:38:22.478Z,101531.31
2022-10-13T16:40:50.256Z,101534.22
2022-10-13T16:43:17.562Z,101531.78
2022-10-13T16:45:59.994Z,101535.88
2022-10-13T16:48:28.053Z,101531.66
2022-10-13T16:50:55.750Z,101532.63
2022-10-13T16:53:23.473Z,101535.28
2022-10-13T16:55:51.260Z,101533.50
2022-10-13T16:58:18.604Z,101537.69
2022-10-13T17:00:45.953Z,101542.53
2022-10-13T17:03:13.248Z,101541.63
2022-10-13T17:05:40.723Z,101546.84
2022-10-13T17:08:08.022Z,101546.97
2022-10-13T17:10:35.560Z,101557.53
2022-10-13T17:13:03.145Z,101544.94
2022-10-13T17:15:32.718Z,101546.75
2022-10-13T17:18:00.366Z,101551.91
2022-10-13T17:20:27.986Z,101553.09
2022-10-13T17:22:55.851Z,101557.13
2022-10-13T17:25:23.335Z,101551.25
2022-10-13T17:27:51.189Z,101547.81
2022-10-13T17:30:19.085Z,101551.16
2022-10-13T17:32:46.395Z,101546.06
2022-10-13T17:35:18.095Z,101555.94
2022-10-13T17:37:45.499Z,101550.25
2022-10-13T17:40:13.974Z,101552.28
2022-10-13T17:42:41.432Z,101545.28
2022-10-13T17:45:09.157Z,101553.63
2022-10-13T17:47:36.741Z,101553.22
2022-10-13T17:50:04.261Z,101555.34
2022-10-13T17:52:31.664Z,101554.13
2022-10-13T17:54:59.008Z,101553.69
2022-10-13T17:57:29.699Z,101554.09
2022-10-13T18:00:04.426Z,101549.28
2022-10-13T18:02:41.632Z,101559.84
2022-10-13T18:05:09.319Z,101553.50
2022-10-13T18:07:36.845Z,101562.75
2022-10-13T18:10:05.346Z,101555.97
2022-10-13T18:12:32.982Z,101551.66
2022-10-13T18:15:00.437Z,101560.91
2022-10-13T18:17:27.880Z,101565.38
2022-10-13T18:19:55.785Z,101564.44
2022-10-13T18:22:23.114Z,101565.06
2022-10-13T18:24:56.718Z,101560.91
2022-10-13T18:27:24.575Z,101575.38
2022-10-13T18:29:52.545Z,101564.63
2022-10-13T18:32:22.206Z,101572.81
2022-10-13T18:34:49.552Z,101568.31
2022-10-13T18:37:17.042Z,101573.72
2022-10-13T18:39:44.871Z,101574.84
2022-10-13T18:42:12.728Z,101565.50
2022-10-13T18:44:40.106Z,101569.41
2022-10-13T18:47:09.373Z,101566.91
2022-10-13T18:49:37.363Z,101567.41
2022-10-13T18:52:05.267Z,101568.91
2022-10-13T18:54:32.648Z,101570.25
2022-10-13T18:57:00.041Z,101563.88
2022-10-13T18:59:29.937Z,101576.13
2022-10-13T19:01:58.143Z,101567.22
2022-10-13T19:04:26.365Z,101569.63
2022-10-13T19:06:54.800Z,101578.66
2022-10-13T19:09:22.875Z,101579.44
2022-10-13T19:11:50.387Z,101580.88
2022-10-13T19:14:19.922Z,101578.44
2022-10-13T19:16:47.237Z,101581.13
2022-10-13T19:19:15.387Z,101581.78
2022-10-13T19:21:43.247Z,101590.69
2022-10-13T19:24:11.260Z,101586.22
2022-10-13T19:26:38.912Z,101592.22
2022-10-13T19:29:07.793Z,101590.69
2022-10-13T19:31:35.964Z,101590.28
2022-10-13T19:34:07.555Z,101585.56
2022-10-13T19:36:36.209Z,101594.56
2022-10-13T19:39:05.868Z,101592.84
2022-10-13T19:41:33.345Z,101587.75
2022-10-13T19:44:00.887Z,101587.72
2022-10-13T19:46:39.385Z,101587.50
2022-10-13T19:49:06.759Z,101588.00
2022-10-13T19:51:35.744Z,101595.22
2022-10-13T19:54:03.548Z,101592.81
2022-10-13T19:56:31.738Z,101592.47
2022-10-13T19:58:59.662Z,101593.69
2022-10-13T20:01:28.023Z,101593.34
2022-10-13T20:03:56.011Z,101586.63
2022-10-13T20:06:23.352Z,101589.84
2022-10-13T20:08:53.061Z,101586.44
2022-10-13T20:11:23.700Z,101588.09
2022-10-13T20:13:53.396Z,101595.75
2022-10-13T20:16:40.561Z,101589.66
2022-10-13T20:19:11.590Z,101591.56
2022-10-13T20:21:41.374Z,101583.69
2022-10-13T20:24:12.005Z,101589.66
2022-10-13T20:26:41.174Z,101587.97
2022-10-13T20:29:08.632Z,101587.34
2022-10-13T20:31:37.209Z,101591.69
2022-10-13T20:34:04.727Z,101594.41
2022-10-13T20:36:37.509Z,101582.69
2022-10-13T20:39:06.373Z,101595.69
2022-10-13T20:41:35.169Z,101579.06
2022-10-13T20:44:02.622Z,101586.25
2022-10-13T20:46:32.975Z,101585.84
2022-10-13T20:49:15.828Z,101585.22
2022-10-13T20:51:43.374Z,101583.13
2022-10-13T20:54:11.435Z,101583.38
2022-10-13T20:56:40.030Z,101588.06
2022-10-13T20:59:08.523Z,101580.41
2022-10-13T21:01:37.084Z,101589.53
2022-10-13T21:04:04.583Z,101580.41
2022-10-13T21:06:33.248Z,101578.44
2022-10-13T21:09:03.885Z,101576.97
2022-10-13T21:11:31.292Z,101573.41
2022-10-13T21:13:59.000Z,101573.78
2022-10-13T21:16:27.997Z,101574.69
2022-10-13T21:18:56.173Z,101574.47
2022-10-13T21:21:24.692Z,101575.75
2022-10-13T21:23:52.773Z,101577.84
2022-10-13T21:26:21.944Z,101576.16
2022-10-13T21:28:50.080Z,101567.88
2022-10-13T21:31:20.314Z,101573.59
2022-10-13T21:33:47.614Z,101567.03
2022-10-13T21:36:18.986Z,101568.31
2022-10-13T21:38:47.428Z,101573.63
2022-10-13T21:41:14.872Z,101568.53
2022-10-13T21:43:43.493Z,101565.75
2022-10-13T21:46:11.814Z,101563.00
2022-10-13T21:48:44.108Z,101569.56
2022-10-13T21:51:11.566Z,101565.31
2022-10-13T21:53:38.992Z,101570.22
2022-10-13T21:56:07.655Z,101574.69
2022-10-13T21:58:35.239Z,101579.38
2022-10-13T22:01:02.872Z,101578.50
2022-10-13T22:03:30.361Z,101582.16
2022-10-13T22:05:57.786Z,101593.16
2022-10-13T22:08:37.549Z,101601.69
2022-10-13T22:11:13.246Z,101587.66
2022-10-13T22:13:41.001Z,101596.56
2022-10-13T22:16:10.736Z,101580.63
2022-10-13T22:18:45.820Z,101587.22
2022-10-13T22:21:16.158Z,101591.47
2022-10-13T22:23:43.780Z,101595.53
2022-10-13T22:26:11.319Z,101593.59
2022-10-13T22:28:38.702Z,101597.84
2022-10-13T22:31:06.714Z,101589.34
2022-10-13T22:33:34.956Z,101596.59
2022-10-13T22:36:09.382Z,101592.97
2022-10-13T22:38:37.042Z,101594.22
2022-10-13T22:41:06.764Z,101587.13
2022-10-13T22:43:34.215Z,101588.06
2022-10-13T22:46:15.205Z,101587.19
2022-10-13T22:48:42.640Z,101590.88
2022-10-13T22:51:12.198Z,101593.44
2022-10-13T22:53:39.619Z,101594.53
2022-10-13T22:56:07.595Z,101595.44
2022-10-13T22:58:35.678Z,101591.72
2022-10-13T23:01:07.199Z,101589.88
2022-10-13T23:03:34.925Z,101598.41
2022-10-13T23:06:02.537Z,101589.75
2022-10-13T23:08:30.199Z,101600.53
2022-10-13T23:11:00.222Z,101590.22
2022-10-13T23:13:27.640Z,101598.47
2022-10-13T23:16:02.852Z,101594.06
2022-10-13T23:18:34.831Z,101591.16
2022-10-13T23:21:06.957Z,101587.94
2022-10-13T23:23:34.475Z,101592.50
2022-10-13T23:26:02.724Z,101586.94
2022-10-13T23:28:30.526Z,101592.91
2022-10-13T23:31:02.308Z,101587.19
2022-10-13T23:33:30.014Z,101591.16
2022-10-13T23:35:57.774Z,101592.91
2022-10-13T23:38:25.257Z,101594.28
2022-10-13T23:40:52.730Z,101588.47
2022-10-13T23:43:21.392Z,101593.41
2022-10-13T23:45:48.688Z,101595.44
2022-10-13T23:48:16.120Z,101590.19
2022-10-13T23:50:43.458Z,101595.06
2022-10-13T23:53:10.825Z,101579.75
2022-10-13T23:55:38.827Z,101578.69
2022-10-13T23:58:06.208Z,101580.00
